createdAt,value
2024-01-22T00:01:54.030Z,101385.35
2024-01-22T00:04:22.034Z,101385.08
2024-01-22T00:06:49.913Z,101379.70
2024-01-22T00:09:17.808Z,101377.12
2024-01-22T00:11:45.840Z,101373.14
2024-01-22T00:14:13.926Z,101364.38
2024-01-22T00:16:41.726Z,101362.41
2024-01-22T00:19:09.638Z,101359.70
2024-01-22T00:21:43.956Z,101350.04
2024-01-22T00:24:11.924Z,101339.69
2024-01-22T00:26:40.303Z,101325.13
2024-01-22T00:29:09.139Z,101319.95
2024-01-22T00:31:37.134Z,101320.77
2024-01-22T00:34:05.151Z,101323.56
2024-01-22T00:36:33.061Z,101322.53
2024-01-22T00:39:00.903Z,101324.00
2024-01-22T00:41:29.001Z,101323.30
2024-01-22T00:43:56.842Z,101315.40
2024-01-22T00:46:24.680Z,101307.48
2024-01-22T00:48:52.684Z,101305.78
2024-01-22T00:51:20.593Z,101305.88
2024-01-22T00:53:48.456Z,101307.06
2024-01-22T00:56:16.428Z,101300.54
2024-01-22T00:58:44.281Z,101293.56
2024-01-22T01:01:12.591Z,101287.65
2024-01-22T01:03:40.451Z,101283.34
2024-01-22T01:06:08.903Z,101277.06
2024-01-22T01:08:36.782Z,101272.27
2024-01-22T01:11:05.250Z,101273.05
2024-01-22T01:13:33.167Z,101276.29
2024-01-22T01:16:02.404Z,101276.63
2024-01-22T01:18:30.500Z,101274.47
2024-01-22T01:20:59.140Z,101270.95
2024-01-22T01:23:27.136Z,101272.80
2024-01-22T01:25:55.107Z,101268.73
2024-01-22T01:28:23.229Z,101268.55
2024-01-22T01:30:53.197Z,101272.48
2024-01-22T01:33:21.252Z,101272.69
2024-01-22T01:35:49.228Z,101274.55
2024-01-22T01:38:17.098Z,101275.23
2024-01-22T01:40:47.115Z,101275.54
2024-01-22T01:43:17.397Z,101274.73
2024-01-22T01:45:45.305Z,101268.08
2024-01-22T01:48:15.048Z,101268.15
2024-01-22T01:50:43.162Z,101273.82
2024-01-22T01:53:11.700Z,101275.59
2024-01-22T01:55:40.267Z,101272.95
2024-01-22T01:58:08.248Z,101278.58
2024-01-22T02:00:36.429Z,101274.92
2024-01-22T02:03:05.034Z,101272.06
2024-01-22T02:05:33.213Z,101265.31
2024-01-22T02:08:02.139Z,101261.70
2024-01-22T02:10:30.208Z,101263.39
2024-01-22T02:12:58.260Z,101267.02
2024-01-22T02:15:26.257Z,101271.35
2024-01-22T02:17:55.160Z,101268.88
2024-01-22T02:20:23.045Z,101271.08
2024-01-22T02:22:51.114Z,101264.45
2024-01-22T02:25:19.050Z,101264.02
2024-01-22T02:27:49.169Z,101267.77
2024-01-22T02:30:17.197Z,101271.17
2024-01-22T02:32:45.305Z,101271.66
2024-01-22T02:35:13.491Z,101267.77
2024-01-22T02:37:41.561Z,101255.75
2024-01-22T02:40:09.933Z,101243.84
2024-01-22T02:42:37.694Z,101232.30
2024-01-22T02:45:06.197Z,101230.23
2024-01-22T02:47:34.483Z,101224.73
2024-01-22T02:50:03.243Z,101224.02
2024-01-22T02:52:31.144Z,101206.39
2024-01-22T02:54:59.006Z,101199.41
2024-01-22T02:57:26.891Z,101188.77
2024-01-22T02:59:54.715Z,101181.98
2024-01-22T03:02:22.621Z,101176.24
2024-01-22T03:04:50.416Z,101183.11
2024-01-22T03:07:18.348Z,101184.38
2024-01-22T03:09:46.397Z,101189.91
2024-01-22T03:12:14.684Z,101191.52
2024-01-22T03:14:42.675Z,101190.13
2024-01-22T03:17:11.152Z,101194.72
2024-01-22T03:19:39.002Z,101198.29
2024-01-22T03:22:07.086Z,101195.09
2024-01-22T03:24:34.908Z,101189.80
2024-01-22T03:27:03.030Z,101178.79
2024-01-22T03:29:30.961Z,101171.96
2024-01-22T03:31:58.743Z,101168.86
2024-01-22T03:34:26.635Z,101163.34
2024-01-22T03:36:54.513Z,101169.55
2024-01-22T03:39:22.471Z,101170.15
2024-01-22T03:41:51.201Z,101170.66
2024-01-22T03:44:19.150Z,101165.03
2024-01-22T03:46:47.010Z,101163.16
2024-01-22T03:49:15.186Z,101168.56
2024-01-22T03:51:43.187Z,101163.41
2024-01-22T03:54:11.222Z,101166.38
2024-01-22T03:56:39.132Z,101158.64
2024-01-22T03:59:06.948Z,101164.44
2024-01-22T04:01:34.752Z,101161.34
2024-01-22T04:04:03.195Z,101156.23
2024-01-22T04:06:31.148Z,101145.79
2024-01-22T04:08:59.138Z,101138.69
2024-01-22T04:11:27.839Z,101140.05
2024-01-22T04:13:56.215Z,101134.89
2024-01-22T04:16:24.014Z,101136.63
2024-01-22T04:18:52.109Z,101130.73
2024-01-22T04:21:20.304Z,101128.96
2024-01-22T04:23:48.308Z,101127.56
2024-01-22T04:26:16.180Z,101125.66
2024-01-22T04:28:44.020Z,101122.83
2024-01-22T04:31:13.220Z,101121.88
2024-01-22T04:33:44.501Z,101110.61
2024-01-22T04:36:12.660Z,101111.19
2024-01-22T04:38:40.558Z,101101.70
2024-01-22T04:41:08.647Z,101092.54
2024-01-22T04:43:36.647Z,101080.75
2024-01-22T04:46:04.708Z,101072.98
2024-01-22T04:48:32.722Z,101065.63
2024-01-22T04:51:00.810Z,101063.18
2024-01-22T04:53:28.852Z,101052.63
2024-01-22T04:55:56.802Z,101053.26
2024-01-22T04:58:24.748Z,101049.89
2024-01-22T05:00:52.696Z,101057.14
2024-01-22T05:03:20.760Z,101056.30
2024-01-22T05:05:49.074Z,101054.91
2024-01-22T05:08:17.028Z,101058.30
2024-01-22T05:10:44.935Z,101057.09
2024-01-22T05:13:15.022Z,101054.33
2024-01-22T05:15:42.931Z,101047.27
2024-01-22T05:18:10.838Z,101040.30
2024-01-22T05:20:38.868Z,101039.02
2024-01-22T05:23:06.801Z,101036.77
2024-01-22T05:25:34.757Z,101037.98
2024-01-22T05:28:02.631Z,101036.34
2024-01-22T05:30:30.818Z,101032.62
2024-01-22T05:32:59.241Z,101023.24
2024-01-22T05:35:27.338Z,101019.75
2024-01-22T05:37:57.354Z,101009.15
2024-01-22T05:40:25.783Z,101004.24
2024-01-22T05:42:53.706Z,100995.54
2024-01-22T05:45:21.929Z,100991.80
2024-01-22T05:47:50.889Z,100986.45
2024-01-22T05:50:19.166Z,100973.20
2024-01-22T05:52:47.039Z,100968.41
2024-01-22T05:55:18.556Z,100956.41
2024-01-22T05:57:48.714Z,100952.34
2024-01-22T06:00:20.354Z,100946.07
2024-01-22T06:02:49.017Z,100946.88
2024-01-22T06:05:17.115Z,100952.58
2024-01-22T06:07:44.989Z,100947.02
2024-01-22T06:10:13.731Z,100935.94
2024-01-22T06:12:41.946Z,100917.88
2024-01-22T06:15:10.877Z,100916.84
2024-01-22T06:17:41.251Z,100918.70
2024-01-22T06:20:10.808Z,100912.29
2024-01-22T06:22:39.153Z,100898.34
2024-01-22T06:25:08.383Z,100893.98
2024-01-22T06:27:36.409Z,100890.33
2024-01-22T06:30:05.185Z,100885.80
2024-01-22T06:32:33.389Z,100879.31
2024-01-22T06:35:01.511Z,100877.02
2024-01-22T06:37:31.553Z,100873.84
2024-01-22T06:40:01.466Z,100872.49
2024-01-22T06:42:37.518Z,100877.05
2024-01-22T06:45:09.798Z,100872.07
2024-01-22T06:47:38.318Z,100868.15
2024-01-22T06:50:07.149Z,100858.84
2024-01-22T06:52:37.556Z,100852.02
2024-01-22T06:55:06.807Z,100855.18
2024-01-22T06:57:34.713Z,100852.31
2024-01-22T07:00:08.938Z,100860.19
2024-01-22T07:02:43.545Z,100877.39
2024-01-22T07:05:14.789Z,100879.45
2024-01-22T07:07:43.527Z,100876.20
2024-01-22T07:10:11.594Z,100874.20
2024-01-22T07:12:42.545Z,100880.08
2024-01-22T07:15:14.402Z,100883.66
2024-01-22T07:17:43.662Z,100893.32
2024-01-22T07:20:18.520Z,100890.88
2024-01-22T07:22:48.629Z,100889.38
2024-01-22T07:25:17.780Z,100887.63
2024-01-22T07:27:46.782Z,100883.11
2024-01-22T07:30:15.289Z,100883.30
2024-01-22T07:32:46.135Z,100884.94
2024-01-22T07:35:15.695Z,100887.73
2024-01-22T07:37:48.320Z,100888.73
2024-01-22T07:40:16.622Z,100888.33
2024-01-22T07:42:44.814Z,100885.41
2024-01-22T07:45:13.031Z,100882.80
2024-01-22T07:47:41.600Z,100881.77
2024-01-22T07:50:14.390Z,100878.36
2024-01-22T07:52:46.859Z,100872.63
2024-01-22T07:55:19.247Z,100868.38
2024-01-22T07:57:47.686Z,100859.91
2024-01-22T08:00:16.098Z,100857.31
2024-01-22T08:02:44.098Z,100851.95
2024-01-22T08:05:15.046Z,100853.09
2024-01-22T08:07:45.353Z,100848.54
2024-01-22T08:10:14.911Z,100848.98
2024-01-22T08:12:42.952Z,100844.23
2024-01-22T08:15:16.556Z,100841.64
2024-01-22T08:17:50.411Z,100829.06
2024-01-22T08:20:19.817Z,100820.18
2024-01-22T08:22:48.993Z,100816.05
2024-01-22T08:25:21.229Z,100814.98
2024-01-22T08:27:49.402Z,100811.25
2024-01-22T08:30:17.942Z,100803.42
2024-01-22T08:32:46.278Z,100793.23
2024-01-22T08:35:14.965Z,100790.02
2024-01-22T08:37:43.115Z,100785.38
2024-01-22T08:40:11.898Z,100780.29
2024-01-22T08:42:39.776Z,100775.06
2024-01-22T08:45:08.373Z,100769.46
2024-01-22T08:47:36.449Z,100766.08
2024-01-22T08:50:05.708Z,100767.75
2024-01-22T08:52:33.805Z,100763.02
2024-01-22T08:55:02.784Z,100756.95
2024-01-22T08:57:31.195Z,100749.05
2024-01-22T08:59:59.987Z,100748.20
2024-01-22T09:02:28.083Z,100747.06
2024-01-22T09:04:56.382Z,100743.60
2024-01-22T09:07:24.411Z,100743.91
2024-01-22T09:09:52.239Z,100733.95
2024-01-22T09:12:20.159Z,100729.16
2024-01-22T09:14:48.140Z,100728.21
2024-01-22T09:17:16.332Z,100723.07
2024-01-22T09:19:44.243Z,100720.06
2024-01-22T09:22:12.696Z,100717.92
2024-01-22T09:24:40.587Z,100719.17
2024-01-22T09:27:08.424Z,100714.66
2024-01-22T09:29:36.570Z,100710.62
2024-01-22T09:32:04.744Z,100709.14
2024-01-22T09:34:32.642Z,100700.58
2024-01-22T09:37:00.744Z,100698.48
2024-01-22T09:39:28.570Z,100696.85
2024-01-22T09:41:57.783Z,100696.46
2024-01-22T09:44:27.449Z,100692.52
2024-01-22T09:46:56.736Z,100685.33
2024-01-22T09:49:25.117Z,100676.95
2024-01-22T09:51:53.316Z,100664.30
2024-01-22T09:54:23.815Z,100665.88
2024-01-22T09:56:56.192Z,100658.31
2024-01-22T09:59:26.304Z,100661.06
2024-01-22T10:01:55.031Z,100649.85
2024-01-22T10:04:28.022Z,100645.39
2024-01-22T10:06:56.351Z,100643.94
2024-01-22T10:09:24.343Z,100640.28
2024-01-22T10:11:52.249Z,100632.16
2024-01-22T10:14:31.550Z,100626.08
2024-01-22T10:17:21.309Z,100614.86
2024-01-22T10:19:51.134Z,100590.58
2024-01-22T10:22:20.980Z,100581.08
2024-01-22T10:24:59.880Z,100563.09
2024-01-22T10:27:28.206Z,100560.23
2024-01-22T10:30:11.395Z,100550.98
2024-01-22T10:32:40.244Z,100535.14
2024-01-22T10:35:23.126Z,100522.48
2024-01-22T10:38:26.518Z,100522.64
2024-01-22T10:40:55.047Z,100516.61
2024-01-22T10:43:31.021Z,100532.77
2024-01-22T10:46:00.463Z,100522.20
2024-01-22T10:48:38.962Z,100515.42
2024-01-22T10:51:13.532Z,100516.85
2024-01-22T10:53:43.059Z,100515.73
2024-01-22T10:56:25.023Z,100503.80
2024-01-22T10:58:57.145Z,100494.16
2024-01-22T11:01:26.575Z,100473.52
2024-01-22T11:03:58.722Z,100471.41
2024-01-22T11:06:29.462Z,100468.86
2024-01-22T11:08:58.981Z,100459.40
2024-01-22T11:11:28.922Z,100446.95
2024-01-22T11:14:00.964Z,100437.52
2024-01-22T11:16:29.283Z,100433.20
2024-01-22T11:19:05.816Z,100422.41
2024-01-22T11:21:43.592Z,100422.61
2024-01-22T11:24:15.966Z,100416.15
2024-01-22T11:26:54.083Z,100408.91
2024-01-22T11:29:24.431Z,100406.16
2024-01-22T11:31:52.973Z,100415.84
2024-01-22T11:34:39.887Z,100424.63
2024-01-22T11:37:10.898Z,100426.52
2024-01-22T11:39:41.008Z,100427.61
2024-01-22T11:42:19.158Z,100435.34
2024-01-22T11:44:53.291Z,100441.94
2024-01-22T11:47:24.407Z,100461.37
2024-01-22T11:50:06.356Z,100462.58
2024-01-22T11:52:37.521Z,100451.13
2024-01-22T11:55:07.540Z,100434.42
2024-01-22T11:57:39.091Z,100425.12
2024-01-22T12:00:13.890Z,100417.77
2024-01-22T12:02:46.187Z,100408.36
2024-01-22T12:05:19.233Z,100402.02
2024-01-22T12:07:50.108Z,100388.05
2024-01-22T12:10:26.296Z,100391.88
2024-01-22T12:12:57.664Z,100393.55
2024-01-22T12:15:28.030Z,100390.67
2024-01-22T12:17:56.777Z,100387.03
2024-01-22T12:20:26.654Z,100376.67
2024-01-22T12:23:03.422Z,100373.33
2024-01-22T12:25:35.749Z,100370.68
2024-01-22T12:28:16.441Z,100369.67
2024-01-22T12:30:47.291Z,100366.20
2024-01-22T12:33:22.295Z,100367.48
2024-01-22T12:35:53.897Z,100369.64
2024-01-22T12:38:24.168Z,100365.63
2024-01-22T12:41:01.589Z,100360.52
2024-01-22T12:43:30.354Z,100350.94
2024-01-22T12:46:08.567Z,100335.29
2024-01-22T12:48:43.413Z,100353.59
2024-01-22T12:51:12.752Z,100342.95
2024-01-22T12:53:43.221Z,100330.30
2024-01-22T12:56:13.698Z,100329.83
2024-01-22T12:58:47.458Z,100335.68
2024-01-22T13:01:15.556Z,100331.13
2024-01-22T13:03:44.320Z,100332.04
2024-01-22T13:06:16.210Z,100321.02
2024-01-22T13:08:44.449Z,100309.42
2024-01-22T13:11:12.514Z,100304.17
2024-01-22T13:13:41.299Z,100298.05
2024-01-22T13:16:15.941Z,100296.04
2024-01-22T13:18:47.880Z,100298.67
2024-01-22T13:21:18.450Z,100292.76
2024-01-22T13:23:47.420Z,100291.36
2024-01-22T13:26:16.447Z,100288.41
2024-01-22T13:28:44.616Z,100280.67
2024-01-22T13:31:13.106Z,100285.27
2024-01-22T13:33:45.085Z,100274.39
2024-01-22T13:36:17.565Z,100276.27
2024-01-22T13:38:45.710Z,100265.99
2024-01-22T13:41:16.072Z,100260.11
2024-01-22T13:43:44.967Z,100244.61
2024-01-22T13:46:13.354Z,100234.80
2024-01-22T13:48:45.698Z,100228.25
2024-01-22T13:51:17.015Z,100219.10
2024-01-22T13:53:48.433Z,100216.13
2024-01-22T13:56:16.419Z,100214.14
2024-01-22T13:58:44.648Z,100209.84
2024-01-22T14:01:12.707Z,100216.41
2024-01-22T14:03:40.739Z,100204.58
2024-01-22T14:06:09.785Z,100216.41
2024-01-22T14:08:37.934Z,100211.89
2024-01-22T14:11:06.144Z,100222.39
2024-01-22T14:13:34.270Z,100199.13
2024-01-22T14:16:04.396Z,100219.34
2024-01-22T14:18:33.758Z,100209.27
2024-01-22T14:21:01.987Z,100218.94
2024-01-22T14:23:31.139Z,100208.38
2024-01-22T14:25:59.758Z,100206.84
2024-01-22T14:28:28.600Z,100198.89
2024-01-22T14:30:57.111Z,100194.21
2024-01-22T14:33:25.526Z,100193.61
2024-01-22T14:35:57.171Z,100195.56
2024-01-22T14:38:32.594Z,100192.06
2024-01-22T14:41:05.792Z,100193.92
2024-01-22T14:43:35.336Z,100183.78
2024-01-22T14:46:03.542Z,100186.11
2024-01-22T14:48:33.622Z,100185.51
2024-01-22T14:51:02.784Z,100185.73
2024-01-22T14:53:31.037Z,100184.93
2024-01-22T14:55:59.088Z,100176.30
2024-01-22T14:58:27.171Z,100183.17
2024-01-22T15:00:55.503Z,100177.57
2024-01-22T15:03:24.632Z,100166.27
2024-01-22T15:05:52.715Z,100156.13
2024-01-22T15:08:20.784Z,100148.04
2024-01-22T15:10:48.742Z,100140.17
2024-01-22T15:13:18.180Z,100145.06
2024-01-22T15:15:46.614Z,100140.80
2024-01-22T15:18:15.369Z,100142.82
2024-01-22T15:20:43.876Z,100150.36
2024-01-22T15:23:14.452Z,100158.85
2024-01-22T15:25:42.299Z,100161.73
2024-01-22T15:28:10.454Z,100163.73
2024-01-22T15:30:38.680Z,100168.30
2024-01-22T15:33:07.665Z,100170.70
2024-01-22T15:35:35.810Z,100172.08
2024-01-22T15:38:04.173Z,100178.11
2024-01-22T15:40:32.800Z,100171.95
2024-01-22T15:43:01.129Z,100170.34
2024-01-22T15:45:29.327Z,100157.86
2024-01-22T15:47:57.740Z,100147.63
2024-01-22T15:50:27.457Z,100147.13
2024-01-22T15:53:00.424Z,100149.30
2024-01-22T15:55:28.453Z,100148.33
2024-01-22T15:57:58.191Z,100152.07
2024-01-22T16:00:30.542Z,100159.45
2024-01-22T16:02:58.551Z,100160.48
2024-01-22T16:05:26.741Z,100153.38
2024-01-22T16:07:54.893Z,100144.74
2024-01-22T16:10:23.225Z,100135.34
2024-01-22T16:12:51.402Z,100133.31
2024-01-22T16:15:19.465Z,100121.12
2024-01-22T16:17:48.218Z,100122.09
2024-01-22T16:20:18.267Z,100122.96
2024-01-22T16:22:46.394Z,100121.96
2024-01-22T16:25:16.452Z,100127.20
2024-01-22T16:27:48.547Z,100126.55
2024-01-22T16:30:17.702Z,100116.77
2024-01-22T16:32:46.594Z,100111.86
2024-01-22T16:35:14.922Z,100103.83
2024-01-22T16:37:42.993Z,100107.02
2024-01-22T16:40:18.012Z,100105.30
2024-01-22T16:42:47.516Z,100110.31
2024-01-22T16:45:15.521Z,100120.82
2024-01-22T16:47:43.472Z,100121.20
2024-01-22T16:50:12.147Z,100114.80
2024-01-22T16:52:40.222Z,100115.64
2024-01-22T16:55:10.546Z,100104.96
2024-01-22T16:57:39.838Z,100114.04
2024-01-22T17:00:08.332Z,100106.48
2024-01-22T17:02:36.355Z,100110.77
2024-01-22T17:05:04.567Z,100115.80
2024-01-22T17:07:33.734Z,100105.79
2024-01-22T17:10:01.896Z,100112.84
2024-01-22T17:12:29.881Z,100106.77
2024-01-22T17:14:58.102Z,100093.73
2024-01-22T17:17:26.270Z,100096.41
2024-01-22T17:19:54.378Z,100098.77
2024-01-22T17:22:22.564Z,100094.41
2024-01-22T17:24:50.466Z,100100.98
2024-01-22T17:27:18.574Z,100097.70
2024-01-22T17:29:47.433Z,100102.27
2024-01-22T17:32:15.473Z,100101.90
2024-01-22T17:34:44.140Z,100106.13
2024-01-22T17:37:12.622Z,100098.86
2024-01-22T17:39:40.903Z,100103.69
2024-01-22T17:42:10.021Z,100100.49
2024-01-22T17:44:40.972Z,100097.13
2024-01-22T17:47:08.934Z,100082.09
2024-01-22T17:49:37.220Z,100084.86
2024-01-22T17:52:05.491Z,100071.39
2024-01-22T17:54:33.603Z,100073.62
2024-01-22T17:57:01.792Z,100057.31
2024-01-22T17:59:29.848Z,100057.48
2024-01-22T18:01:57.778Z,100054.11
2024-01-22T18:04:25.655Z,100062.52
2024-01-22T18:06:53.661Z,100062.34
2024-01-22T18:09:21.756Z,100051.53
2024-01-22T18:11:49.960Z,100057.80
2024-01-22T18:14:18.644Z,100046.17
2024-01-22T18:16:46.925Z,100045.18
2024-01-22T18:19:17.821Z,100049.92
2024-01-22T18:21:45.925Z,100048.39
2024-01-22T18:24:13.919Z,100049.77
2024-01-22T18:26:43.600Z,100045.89
2024-01-22T18:29:11.891Z,100044.05
2024-01-22T18:31:39.756Z,100041.37
2024-01-22T18:34:07.790Z,100044.27
2024-01-22T18:36:36.055Z,100044.55
2024-01-22T18:39:06.291Z,100043.73
2024-01-22T18:41:34.686Z,100031.27
2024-01-22T18:44:08.386Z,100034.80
2024-01-22T18:46:37.717Z,100027.38
2024-01-22T18:49:06.013Z,100028.05
2024-01-22T18:51:34.957Z,100029.05
2024-01-22T18:54:02.879Z,100027.34
2024-01-22T18:56:30.940Z,100035.83
2024-01-22T18:59:00.093Z,100026.62
2024-01-22T19:01:28.219Z,100036.77
2024-01-22T19:03:56.348Z,100033.05
2024-01-22T19:06:24.352Z,100035.07
2024-01-22T19:08:52.370Z,100040.57
2024-01-22T19:11:20.180Z,100032.84
2024-01-22T19:13:47.948Z,100031.03
2024-01-22T19:16:16.973Z,100027.55
2024-01-22T19:18:45.467Z,100019.14
2024-01-22T19:21:16.893Z,100014.15
2024-01-22T19:23:45.343Z,100010.19
2024-01-22T19:26:13.474Z,100020.28
2024-01-22T19:28:41.450Z,100016.42
2024-01-22T19:31:09.424Z,100021.77
2024-01-22T19:33:37.285Z,100020.94
2024-01-22T19:36:05.831Z,100015.05
2024-01-22T19:38:33.881Z,100002.35
2024-01-22T19:41:01.752Z,100006.22
2024-01-22T19:43:29.532Z,100004.02
2024-01-22T19:45:57.331Z,99998.64
2024-01-22T19:48:26.291Z,100004.22
2024-01-22T19:50:56.551Z,100012.51
2024-01-22T19:53:26.168Z,100012.19
2024-01-22T19:55:54.049Z,100010.00
2024-01-22T19:58:21.975Z,99997.70
2024-01-22T20:00:49.951Z,100005.11
2024-01-22T20:03:18.552Z,100008.98
2024-01-22T20:05:46.742Z,100015.06
2024-01-22T20:08:15.188Z,100018.79
2024-01-22T20:10:43.376Z,100018.81
2024-01-22T20:13:11.321Z,100007.66
2024-01-22T20:15:39.464Z,100014.55
2024-01-22T20:18:07.683Z,100009.27
2024-01-22T20:20:35.735Z,100001.90
2024-01-22T20:23:04.591Z,99999.67
2024-01-22T20:25:32.497Z,100009.95
2024-01-22T20:28:00.356Z,100000.29
2024-01-22T20:30:28.443Z,99992.32
2024-01-22T20:32:57.499Z,99997.98
2024-01-22T20:35:25.419Z,100004.85
2024-01-22T20:37:53.411Z,100015.09
2024-01-22T20:40:21.321Z,100007.48
2024-01-22T20:42:49.290Z,100010.84
2024-01-22T20:45:17.904Z,100010.20
2024-01-22T20:47:45.861Z,100007.70
2024-01-22T20:50:14.523Z,100008.17
2024-01-22T20:52:42.417Z,100015.58
2024-01-22T20:55:10.355Z,100017.75
2024-01-22T20:57:38.752Z,100013.85
2024-01-22T21:00:12.527Z,100011.67
2024-01-22T21:02:41.944Z,100010.14
2024-01-22T21:05:10.623Z,100000.52
2024-01-22T21:07:40.906Z,100004.21
2024-01-22T21:10:10.255Z,100008.11
2024-01-22T21:12:38.721Z,100010.36
2024-01-22T21:15:07.637Z,100018.58
2024-01-22T21:17:35.871Z,100013.02
2024-01-22T21:20:06.262Z,100011.33
2024-01-22T21:22:34.320Z,100019.73
2024-01-22T21:25:02.420Z,100023.23
2024-01-22T21:27:30.480Z,100024.92
2024-01-22T21:29:58.559Z,100030.79
2024-01-22T21:32:26.522Z,100035.81
2024-01-22T21:34:54.663Z,100035.61
2024-01-22T21:37:22.918Z,100044.05
2024-01-22T21:39:52.623Z,100049.42
2024-01-22T21:42:21.083Z,100050.05
2024-01-22T21:44:49.976Z,100059.02
2024-01-22T21:47:18.275Z,100060.73
2024-01-22T21:49:46.453Z,100069.89
2024-01-22T21:52:15.033Z,100072.38
2024-01-22T21:54:43.110Z,100078.11
2024-01-22T21:57:11.326Z,100076.73
2024-01-22T21:59:41.490Z,100079.98
2024-01-22T22:02:10.057Z,100086.29
2024-01-22T22:04:39.917Z,100089.08
2024-01-22T22:07:08.081Z,100089.46
2024-01-22T22:09:37.306Z,100089.21
2024-01-22T22:12:05.717Z,100089.83
2024-01-22T22:14:34.209Z,100088.12
2024-01-22T22:17:02.592Z,100085.55
2024-01-22T22:19:30.859Z,100083.88
2024-01-22T22:21:59.395Z,100077.61
2024-01-22T22:24:27.442Z,100078.62
2024-01-22T22:26:55.869Z,100076.11
2024-01-22T22:29:26.228Z,100081.23
2024-01-22T22:31:55.837Z,100087.49
2024-01-22T22:34:25.864Z,100091.25
2024-01-22T22:36:54.253Z,100092.16
2024-01-22T22:39:22.354Z,100096.98
2024-01-22T22:41:50.383Z,100099.16
2024-01-22T22:44:18.173Z,100098.13
2024-01-22T22:46:48.241Z,100103.60
2024-01-22T22:49:16.292Z,100109.20
2024-01-22T22:51:45.922Z,100110.89
2024-01-22T22:54:14.217Z,100110.27
2024-01-22T22:56:43.360Z,100109.92
2024-01-22T22:59:11.364Z,100111.91
2024-01-22T23:01:39.436Z,100104.21
2024-01-22T23:04:07.820Z,100109.27
2024-01-22T23:06:36.474Z,100103.77
2024-01-22T23:09:04.493Z,100100.11
2024-01-22T23:11:32.474Z,100102.17
2024-01-22T23:14:03.059Z,100099.70
2024-01-22T23:16:31.385Z,100106.73
2024-01-22T23:18:59.795Z,100108.41
2024-01-22T23:21:27.912Z,100105.15
2024-01-22T23:23:56.007Z,100112.55
2024-01-22T23:26:24.263Z,100106.77
2024-01-22T23:28:52.209Z,100108.41
2024-01-22T23:31:22.314Z,100108.98
2024-01-22T23:33:50.777Z,100108.63
2024-01-22T23:36:18.880Z,100109.90
2024-01-22T23:38:49.617Z,100113.12
2024-01-22T23:41:17.570Z,100113.05
2024-01-22T23:43:45.546Z,100122.48
2024-01-22T23:46:14.452Z,100125.46
2024-01-22T23:48:42.564Z,100125.10
2024-01-22T23:51:11.413Z,100127.56
2024-01-22T23:53:39.465Z,100126.59
2024-01-22T23:56:07.646Z,100131.74
2024-01-22T23:58:35.645Z,100138.31
